sensor_id;sensor_type;location;lat;lon;timestamp;P1;durP1;ratioP1;P2;durP2;ratioP2
80219;SDS011;69535;37.974;23.708;2023-05-02T00:02:15;11.80;;;6.88;;
80219;SDS011;69535;37.974;23.708;2023-05-02T00:04:41;9.35;;;7.00;;
80219;SDS011;69535;37.974;23.708;2023-05-02T00:07:06;11.35;;;6.55;;
80219;SDS011;69535;37.974;23.708;2023-05-02T00:09:32;11.45;;;6.75;;
80219;SDS011;69535;37.974;23.708;2023-05-02T00:11:58;14.57;;;6.90;;
80219;SDS011;69535;37.974;23.708;2023-05-02T00:14:24;9.43;;;6.38;;
80219;SDS011;69535;37.974;23.708;2023-05-02T00:16:50;9.60;;;6.55;;
80219;SDS011;69535;37.974;23.708;2023-05-02T00:19:15;10.63;;;6.43;;
80219;SDS011;69535;37.974;23.708;2023-05-02T00:21:41;9.88;;;6.70;;
80219;SDS011;69535;37.974;23.708;2023-05-02T00:24:07;9.40;;;6.38;;
80219;SDS011;69535;37.974;23.708;2023-05-02T00:26:32;9.57;;;6.25;;
80219;SDS011;69535;37.974;23.708;2023-05-02T00:28:58;13.32;;;6.28;;
80219;SDS011;69535;37.974;23.708;2023-05-02T00:31:25;11.95;;;6.93;;
80219;SDS011;69535;37.974;23.708;2023-05-02T00:33:50;9.63;;;6.18;;
80219;SDS011;69535;37.974;23.708;2023-05-02T00:36:16;9.40;;;6.07;;
80219;SDS011;69535;37.974;23.708;2023-05-02T00:38:43;8.55;;;5.63;;
80219;SDS011;69535;37.974;23.708;2023-05-02T00:41:09;12.20;;;5.80;;
80219;SDS011;69535;37.974;23.708;2023-05-02T00:43:35;11.75;;;5.93;;
80219;SDS011;69535;37.974;23.708;2023-05-02T00:46:03;9.70;;;6.03;;
80219;SDS011;69535;37.974;23.708;2023-05-02T00:48:31;9.98;;;6.05;;
80219;SDS011;69535;37.974;23.708;2023-05-02T00:50:57;9.20;;;5.88;;
80219;SDS011;69535;37.974;23.708;2023-05-02T00:53:23;9.27;;;5.50;;
80219;SDS011;69535;37.974;23.708;2023-05-02T00:55:48;8.63;;;5.63;;
80219;SDS011;69535;37.974;23.708;2023-05-02T00:58:15;11.55;;;6.00;;
80219;SDS011;69535;37.974;23.708;2023-05-02T01:01:32;9.13;;;5.50;;
80219;SDS011;69535;37.974;23.708;2023-05-02T01:11:34;9.65;;;5.57;;
80219;SDS011;69535;37.974;23.708;2023-05-02T01:14:16;12.15;;;5.30;;
80219;SDS011;69535;37.974;23.708;2023-05-02T01:16:42;8.65;;;5.70;;
80219;SDS011;69535;37.974;23.708;2023-05-02T01:21:57;9.35;;;5.63;;
80219;SDS011;69535;37.974;23.708;2023-05-02T01:24:25;8.57;;;5.22;;
80219;SDS011;69535;37.974;23.708;2023-05-02T01:31:55;8.13;;;5.22;;
80219;SDS011;69535;37.974;23.708;2023-05-02T01:34:22;12.25;;;5.55;;
80219;SDS011;69535;37.974;23.708;2023-05-02T01:36:50;11.75;;;6.28;;
80219;SDS011;69535;37.974;23.708;2023-05-02T01:39:17;8.98;;;4.90;;
80219;SDS011;69535;37.974;23.708;2023-05-02T01:41:45;9.10;;;5.45;;
80219;SDS011;69535;37.974;23.708;2023-05-02T01:44:16;8.95;;;5.10;;
80219;SDS011;69535;37.974;23.708;2023-05-02T01:46:44;7.90;;;5.45;;
80219;SDS011;69535;37.974;23.708;2023-05-02T01:49:12;9.07;;;5.28;;
80219;SDS011;69535;37.974;23.708;2023-05-02T01:51:42;9.40;;;5.18;;
80219;SDS011;69535;37.974;23.708;2023-05-02T01:54:11;10.48;;;5.30;;
80219;SDS011;69535;37.974;23.708;2023-05-02T01:56:39;8.48;;;5.30;;
80219;SDS011;69535;37.974;23.708;2023-05-02T01:59:07;8.23;;;5.13;;
80219;SDS011;69535;37.974;23.708;2023-05-02T02:01:35;10.35;;;5.35;;
80219;SDS011;69535;37.974;23.708;2023-05-02T02:04:01;8.43;;;5.35;;
80219;SDS011;69535;37.974;23.708;2023-05-02T02:06:30;8.40;;;5.30;;
80219;SDS011;69535;37.974;23.708;2023-05-02T02:08:57;7.18;;;4.93;;
80219;SDS011;69535;37.974;23.708;2023-05-02T02:11:26;12.55;;;5.65;;
80219;SDS011;69535;37.974;23.708;2023-05-02T02:14:26;8.60;;;5.43;;
80219;SDS011;69535;37.974;23.708;2023-05-02T02:17:00;9.63;;;6.03;;
80219;SDS011;69535;37.974;23.708;2023-05-02T02:19:28;10.15;;;5.60;;
80219;SDS011;69535;37.974;23.708;2023-05-02T02:21:55;7.95;;;5.72;;
80219;SDS011;69535;37.974;23.708;2023-05-02T02:24:22;9.88;;;5.32;;
80219;SDS011;69535;37.974;23.708;2023-05-02T02:26:50;8.02;;;5.47;;
80219;SDS011;69535;37.974;23.708;2023-05-02T02:29:16;10.35;;;5.85;;
80219;SDS011;69535;37.974;23.708;2023-05-02T02:31:41;9.85;;;5.82;;
80219;SDS011;69535;37.974;23.708;2023-05-02T02:34:07;14.25;;;5.78;;
80219;SDS011;69535;37.974;23.708;2023-05-02T02:39:41;11.50;;;6.20;;
80219;SDS011;69535;37.974;23.708;2023-05-02T02:53:08;9.60;;;6.32;;
80219;SDS011;69535;37.974;23.708;2023-05-02T02:55:43;14.65;;;6.68;;
80219;SDS011;69535;37.974;23.708;2023-05-02T03:00:54;11.93;;;6.65;;
80219;SDS011;69535;37.974;23.708;2023-05-02T03:03:21;9.38;;;6.45;;
80219;SDS011;69535;37.974;23.708;2023-05-02T03:05:53;24.92;;;7.85;;
80219;SDS011;69535;37.974;23.708;2023-05-02T03:08:20;12.45;;;7.07;;
80219;SDS011;69535;37.974;23.708;2023-05-02T03:10:46;12.57;;;6.88;;
80219;SDS011;69535;37.974;23.708;2023-05-02T03:13:12;12.30;;;6.88;;
80219;SDS011;69535;37.974;23.708;2023-05-02T03:18:16;11.90;;;6.60;;
80219;SDS011;69535;37.974;23.708;2023-05-02T03:20:42;14.65;;;6.70;;
80219;SDS011;69535;37.974;23.708;2023-05-02T03:23:08;16.10;;;6.72;;
80219;SDS011;69535;37.974;23.708;2023-05-02T03:25:34;11.18;;;6.75;;
80219;SDS011;69535;37.974;23.708;2023-05-02T03:28:00;13.02;;;6.45;;
80219;SDS011;69535;37.974;23.708;2023-05-02T03:30:26;10.93;;;6.93;;
80219;SDS011;69535;37.974;23.708;2023-05-02T03:32:51;12.50;;;6.82;;
80219;SDS011;69535;37.974;23.708;2023-05-02T03:35:17;11.93;;;7.05;;
80219;SDS011;69535;37.974;23.708;2023-05-02T03:37:43;17.42;;;7.43;;
80219;SDS011;69535;37.974;23.708;2023-05-02T03:40:09;17.58;;;6.90;;
80219;SDS011;69535;37.974;23.708;2023-05-02T03:42:35;15.90;;;6.55;;
80219;SDS011;69535;37.974;23.708;2023-05-02T03:45:05;13.82;;;7.03;;
80219;SDS011;69535;37.974;23.708;2023-05-02T03:47:31;22.25;;;6.97;;
80219;SDS011;69535;37.974;23.708;2023-05-02T03:49:57;17.65;;;6.63;;
80219;SDS011;69535;37.974;23.708;2023-05-02T03:52:23;17.17;;;7.53;;
80219;SDS011;69535;37.974;23.708;2023-05-02T03:54:49;16.33;;;6.45;;
80219;SDS011;69535;37.974;23.708;2023-05-02T03:57:16;15.02;;;6.82;;
80219;SDS011;69535;37.974;23.708;2023-05-02T03:59:42;16.15;;;6.72;;
80219;SDS011;69535;37.974;23.708;2023-05-02T04:02:10;15.27;;;6.25;;
80219;SDS011;69535;37.974;23.708;2023-05-02T04:04:36;24.67;;;6.70;;
80219;SDS011;69535;37.974;23.708;2023-05-02T04:07:02;21.75;;;6.75;;
80219;SDS011;69535;37.974;23.708;2023-05-02T04:09:29;21.95;;;6.53;;
80219;SDS011;69535;37.974;23.708;2023-05-02T04:11:55;13.68;;;6.85;;
80219;SDS011;69535;37.974;23.708;2023-05-02T04:14:20;25.95;;;6.75;;
80219;SDS011;69535;37.974;23.708;2023-05-02T04:16:49;18.38;;;7.35;;
80219;SDS011;69535;37.974;23.708;2023-05-02T04:19:16;16.38;;;6.60;;
80219;SDS011;69535;37.974;23.708;2023-05-02T04:21:42;12.65;;;6.63;;
80219;SDS011;69535;37.974;23.708;2023-05-02T04:24:08;25.83;;;8.32;;
80219;SDS011;69535;37.974;23.708;2023-05-02T04:26:34;137.00;;;11.60;;
80219;SDS011;69535;37.974;23.708;2023-05-02T04:29:00;38.55;;;7.25;;
80219;SDS011;69535;37.974;23.708;2023-05-02T04:31:25;55.75;;;7.80;;
80219;SDS011;69535;37.974;23.708;2023-05-02T04:33:51;68.35;;;8.25;;
80219;SDS011;69535;37.974;23.708;2023-05-02T04:36:17;41.58;;;8.35;;
80219;SDS011;69535;37.974;23.708;2023-05-02T04:38:43;43.80;;;8.20;;
80219;SDS011;69535;37.974;23.708;2023-05-02T04:41:09;45.30;;;8.35;;
80219;SDS011;69535;37.974;23.708;2023-05-02T04:43:35;45.67;;;8.18;;
80219;SDS011;69535;37.974;23.708;2023-05-02T04:46:01;53.92;;;7.88;;
80219;SDS011;69535;37.974;23.708;2023-05-02T04:48:27;40.20;;;8.02;;
80219;SDS011;69535;37.974;23.708;2023-05-02T04:50:52;35.75;;;7.78;;
80219;SDS011;69535;37.974;23.708;2023-05-02T04:53:20;28.92;;;7.47;;
80219;SDS011;69535;37.974;23.708;2023-05-02T04:55:46;41.20;;;7.55;;
80219;SDS011;69535;37.974;23.708;2023-05-02T04:58:12;24.83;;;7.47;;
80219;SDS011;69535;37.974;23.708;2023-05-02T05:00:38;37.97;;;7.90;;
80219;SDS011;69535;37.974;23.708;2023-05-02T05:03:03;35.28;;;7.82;;
80219;SDS011;69535;37.974;23.708;2023-05-02T05:05:30;31.75;;;6.90;;
80219;SDS011;69535;37.974;23.708;2023-05-02T05:07:57;28.90;;;7.72;;
80219;SDS011;69535;37.974;23.708;2023-05-02T05:10:22;33.15;;;7.82;;
80219;SDS011;69535;37.974;23.708;2023-05-02T05:12:48;21.35;;;7.05;;
80219;SDS011;69535;37.974;23.708;2023-05-02T05:15:15;21.10;;;7.10;;
80219;SDS011;69535;37.974;23.708;2023-05-02T05:17:40;23.38;;;7.03;;
80219;SDS011;69535;37.974;23.708;2023-05-02T05:20:06;20.52;;;6.78;;
80219;SDS011;69535;37.974;23.708;2023-05-02T05:22:37;24.60;;;6.47;;
80219;SDS011;69535;37.974;23.708;2023-05-02T05:25:03;23.92;;;6.68;;
80219;SDS011;69535;37.974;23.708;2023-05-02T05:27:29;24.52;;;6.68;;
80219;SDS011;69535;37.974;23.708;2023-05-02T05:29:55;19.23;;;6.28;;
80219;SDS011;69535;37.974;23.708;2023-05-02T05:32:21;21.25;;;7.80;;
80219;SDS011;69535;37.974;23.708;2023-05-02T05:34:51;26.13;;;7.22;;
80219;SDS011;69535;37.974;23.708;2023-05-02T05:37:18;19.35;;;7.00;;
80219;SDS011;69535;37.974;23.708;2023-05-02T05:39:44;18.50;;;7.32;;
80219;SDS011;69535;37.974;23.708;2023-05-02T05:42:10;11.15;;;6.93;;
80219;SDS011;69535;37.974;23.708;2023-05-02T05:44:37;20.33;;;7.05;;
80219;SDS011;69535;37.974;23.708;2023-05-02T05:47:03;15.05;;;6.18;;
80219;SDS011;69535;37.974;23.708;2023-05-02T05:49:29;15.02;;;6.20;;
80219;SDS011;69535;37.974;23.708;2023-05-02T05:51:55;14.23;;;6.43;;
80219;SDS011;69535;37.974;23.708;2023-05-02T05:54:21;13.52;;;6.35;;
80219;SDS011;69535;37.974;23.708;2023-05-02T05:56:47;16.33;;;6.30;;
80219;SDS011;69535;37.974;23.708;2023-05-02T05:59:12;9.27;;;5.60;;
80219;SDS011;69535;37.974;23.708;2023-05-02T06:01:38;16.23;;;6.20;;
80219;SDS011;69535;37.974;23.708;2023-05-02T06:04:04;13.73;;;6.28;;
80219;SDS011;69535;37.974;23.708;2023-05-02T06:06:31;11.38;;;5.75;;
80219;SDS011;69535;37.974;23.708;2023-05-02T06:08:57;8.93;;;5.25;;
80219;SDS011;69535;37.974;23.708;2023-05-02T06:11:23;14.40;;;5.18;;
80219;SDS011;69535;37.974;23.708;2023-05-02T06:13:50;9.15;;;4.90;;
80219;SDS011;69535;37.974;23.708;2023-05-02T06:16:16;10.95;;;5.00;;
80219;SDS011;69535;37.974;23.708;2023-05-02T06:18:45;12.10;;;4.78;;
80219;SDS011;69535;37.974;23.708;2023-05-02T06:21:11;9.88;;;4.85;;
80219;SDS011;69535;37.974;23.708;2023-05-02T06:23:36;7.45;;;4.65;;
80219;SDS011;69535;37.974;23.708;2023-05-02T06:26:03;7.68;;;4.57;;
80219;SDS011;69535;37.974;23.708;2023-05-02T06:28:29;8.10;;;4.45;;
80219;SDS011;69535;37.974;23.708;2023-05-02T06:31:03;7.28;;;4.38;;
80219;SDS011;69535;37.974;23.708;2023-05-02T06:33:30;8.90;;;4.70;;
80219;SDS011;69535;37.974;23.708;2023-05-02T06:35:57;9.18;;;4.20;;
80219;SDS011;69535;37.974;23.708;2023-05-02T06:38:23;8.02;;;4.05;;
80219;SDS011;69535;37.974;23.708;2023-05-02T06:40:49;7.30;;;4.07;;
80219;SDS011;69535;37.974;23.708;2023-05-02T06:43:15;8.15;;;4.50;;
80219;SDS011;69535;37.974;23.708;2023-05-02T06:45:42;7.10;;;4.55;;
80219;SDS011;69535;37.974;23.708;2023-05-02T06:48:08;5.88;;;4.10;;
80219;SDS011;69535;37.974;23.708;2023-05-02T06:50:34;7.43;;;4.18;;
80219;SDS011;69535;37.974;23.708;2023-05-02T06:52:59;6.13;;;4.20;;
80219;SDS011;69535;37.974;23.708;2023-05-02T06:55:25;8.23;;;4.20;;
80219;SDS011;69535;37.974;23.708;2023-05-02T06:57:51;8.65;;;4.20;;
80219;SDS011;69535;37.974;23.708;2023-05-02T07:00:18;6.97;;;3.95;;
80219;SDS011;69535;37.974;23.708;2023-05-02T07:02:45;6.85;;;4.43;;
80219;SDS011;69535;37.974;23.708;2023-05-02T07:05:12;8.38;;;4.40;;
80219;SDS011;69535;37.974;23.708;2023-05-02T07:07:39;6.53;;;4.22;;
80219;SDS011;69535;37.974;23.708;2023-05-02T07:10:06;7.13;;;3.80;;
80219;SDS011;69535;37.974;23.708;2023-05-02T07:12:32;9.55;;;4.50;;
80219;SDS011;69535;37.974;23.708;2023-05-02T07:14:58;7.53;;;4.43;;
80219;SDS011;69535;37.974;23.708;2023-05-02T07:17:23;9.13;;;4.43;;
80219;SDS011;69535;37.974;23.708;2023-05-02T07:19:49;6.40;;;4.20;;
80219;SDS011;69535;37.974;23.708;2023-05-02T07:22:15;5.40;;;3.92;;
80219;SDS011;69535;37.974;23.708;2023-05-02T07:24:41;7.50;;;4.50;;
80219;SDS011;69535;37.974;23.708;2023-05-02T07:27:07;6.88;;;4.13;;
80219;SDS011;69535;37.974;23.708;2023-05-02T07:29:34;7.10;;;4.70;;
80219;SDS011;69535;37.974;23.708;2023-05-02T07:32:00;8.27;;;4.30;;
80219;SDS011;69535;37.974;23.708;2023-05-02T07:34:26;6.57;;;4.40;;
80219;SDS011;69535;37.974;23.708;2023-05-02T07:36:51;6.85;;;4.40;;
80219;SDS011;69535;37.974;23.708;2023-05-02T07:39:17;7.60;;;4.45;;
80219;SDS011;69535;37.974;23.708;2023-05-02T07:41:44;9.85;;;4.15;;
80219;SDS011;69535;37.974;23.708;2023-05-02T07:44:10;6.97;;;4.20;;
80219;SDS011;69535;37.974;23.708;2023-05-02T07:46:36;6.28;;;3.63;;
80219;SDS011;69535;37.974;23.708;2023-05-02T07:49:01;4.55;;;3.80;;
80219;SDS011;69535;37.974;23.708;2023-05-02T07:51:27;6.05;;;3.65;;
80219;SDS011;69535;37.974;23.708;2023-05-02T07:53:53;4.78;;;3.35;;
80219;SDS011;69535;37.974;23.708;2023-05-02T07:56:22;6.88;;;3.58;;
80219;SDS011;69535;37.974;23.708;2023-05-02T07:58:49;6.20;;;3.42;;
80219;SDS011;69535;37.974;23.708;2023-05-02T08:01:17;7.60;;;3.97;;
80219;SDS011;69535;37.974;23.708;2023-05-02T08:03:44;7.05;;;3.75;;
80219;SDS011;69535;37.974;23.708;2023-05-02T08:06:10;4.18;;;3.63;;
80219;SDS011;69535;37.974;23.708;2023-05-02T08:08:37;5.68;;;3.70;;
80219;SDS011;69535;37.974;23.708;2023-05-02T08:11:02;8.52;;;3.88;;
80219;SDS011;69535;37.974;23.708;2023-05-02T08:13:28;5.57;;;3.72;;
80219;SDS011;69535;37.974;23.708;2023-05-02T08:15:54;6.38;;;3.92;;
80219;SDS011;69535;37.974;23.708;2023-05-02T08:18:25;6.50;;;3.28;;
80219;SDS011;69535;37.974;23.708;2023-05-02T08:20:51;5.65;;;3.60;;
80219;SDS011;69535;37.974;23.708;2023-05-02T08:23:18;10.73;;;3.53;;
80219;SDS011;69535;37.974;23.708;2023-05-02T08:25:44;4.43;;;3.30;;
80219;SDS011;69535;37.974;23.708;2023-05-02T08:28:09;6.63;;;3.33;;
80219;SDS011;69535;37.974;23.708;2023-05-02T08:30:35;4.80;;;3.40;;
80219;SDS011;69535;37.974;23.708;2023-05-02T08:33:01;5.53;;;3.63;;
80219;SDS011;69535;37.974;23.708;2023-05-02T08:35:29;4.43;;;3.45;;
80219;SDS011;69535;37.974;23.708;2023-05-02T08:37:55;5.45;;;3.47;;
80219;SDS011;69535;37.974;23.708;2023-05-02T08:40:21;5.10;;;3.15;;
80219;SDS011;69535;37.974;23.708;2023-05-02T08:42:47;5.07;;;3.30;;
80219;SDS011;69535;37.974;23.708;2023-05-02T08:45:13;10.60;;;3.65;;
80219;SDS011;69535;37.974;23.708;2023-05-02T08:47:40;4.28;;;3.33;;
80219;SDS011;69535;37.974;23.708;2023-05-02T08:50:07;4.68;;;3.13;;
80219;SDS011;69535;37.974;23.708;2023-05-02T08:52:34;5.22;;;3.10;;
80219;SDS011;69535;37.974;23.708;2023-05-02T08:55:01;4.35;;;3.55;;
80219;SDS011;69535;37.974;23.708;2023-05-02T08:57:28;4.45;;;3.40;;
80219;SDS011;69535;37.974;23.708;2023-05-02T08:59:57;8.52;;;3.45;;
80219;SDS011;69535;37.974;23.708;2023-05-02T09:05:11;6.20;;;3.35;;
80219;SDS011;69535;37.974;23.708;2023-05-02T09:07:47;5.50;;;3.60;;
80219;SDS011;69535;37.974;23.708;2023-05-02T09:10:13;6.35;;;3.60;;
80219;SDS011;69535;37.974;23.708;2023-05-02T09:12:40;4.60;;;3.20;;
80219;SDS011;69535;37.974;23.708;2023-05-02T09:15:13;3.88;;;3.20;;
80219;SDS011;69535;37.974;23.708;2023-05-02T09:17:43;5.65;;;3.40;;
80219;SDS011;69535;37.974;23.708;2023-05-02T09:20:11;5.47;;;3.60;;
80219;SDS011;69535;37.974;23.708;2023-05-02T09:22:46;4.70;;;3.20;;
80219;SDS011;69535;37.974;23.708;2023-05-02T09:25:14;3.80;;;3.30;;
80219;SDS011;69535;37.974;23.708;2023-05-02T09:27:51;6.75;;;3.33;;
80219;SDS011;69535;37.974;23.708;2023-05-02T09:30:18;6.22;;;4.32;;
80219;SDS011;69535;37.974;23.708;2023-05-02T09:32:48;5.80;;;4.75;;
80219;SDS011;69535;37.974;23.708;2023-05-02T09:35:16;8.27;;;5.72;;
80219;SDS011;69535;37.974;23.708;2023-05-02T09:37:51;8.98;;;6.20;;
80219;SDS011;69535;37.974;23.708;2023-05-02T09:40:18;7.72;;;6.22;;
80219;SDS011;69535;37.974;23.708;2023-05-02T09:42:44;9.15;;;6.32;;
80219;SDS011;69535;37.974;23.708;2023-05-02T09:45:23;7.75;;;5.60;;
80219;SDS011;69535;37.974;23.708;2023-05-02T09:47:50;9.80;;;5.80;;
80219;SDS011;69535;37.974;23.708;2023-05-02T09:50:37;7.93;;;4.80;;
80219;SDS011;69535;37.974;23.708;2023-05-02T09:53:06;6.72;;;4.53;;
80219;SDS011;69535;37.974;23.708;2023-05-02T09:55:33;6.75;;;4.40;;
80219;SDS011;69535;37.974;23.708;2023-05-02T09:57:59;5.90;;;4.53;;
80219;SDS011;69535;37.974;23.708;2023-05-02T10:03:06;5.40;;;4.30;;
80219;SDS011;69535;37.974;23.708;2023-05-02T10:05:34;6.47;;;4.30;;
80219;SDS011;69535;37.974;23.708;2023-05-02T10:08:03;6.57;;;3.97;;
80219;SDS011;69535;37.974;23.708;2023-05-02T10:10:35;5.18;;;3.88;;
80219;SDS011;69535;37.974;23.708;2023-05-02T10:13:02;7.43;;;4.07;;
80219;SDS011;69535;37.974;23.708;2023-05-02T10:15:33;4.78;;;3.67;;
80219;SDS011;69535;37.974;23.708;2023-05-02T10:18:02;8.73;;;3.65;;
80219;SDS011;69535;37.974;23.708;2023-05-02T10:20:39;5.57;;;4.30;;
80219;SDS011;69535;37.974;23.708;2023-05-02T10:23:15;5.10;;;3.70;;
80219;SDS011;69535;37.974;23.708;2023-05-02T10:25:42;4.60;;;3.75;;
80219;SDS011;69535;37.974;23.708;2023-05-02T10:28:08;11.25;;;3.40;;
80219;SDS011;69535;37.974;23.708;2023-05-02T10:30:35;4.07;;;3.42;;
80219;SDS011;69535;37.974;23.708;2023-05-02T10:33:01;4.75;;;3.47;;
80219;SDS011;69535;37.974;23.708;2023-05-02T10:35:28;4.82;;;3.38;;
80219;SDS011;69535;37.974;23.708;2023-05-02T10:37:56;4.15;;;3.30;;
80219;SDS011;69535;37.974;23.708;2023-05-02T10:40:24;4.30;;;3.47;;
80219;SDS011;69535;37.974;23.708;2023-05-02T10:42:50;3.83;;;3.40;;
80219;SDS011;69535;37.974;23.708;2023-05-02T10:45:30;5.80;;;3.53;;
80219;SDS011;69535;37.974;23.708;2023-05-02T10:48:15;4.68;;;3.42;;
80219;SDS011;69535;37.974;23.708;2023-05-02T10:50:46;4.68;;;3.47;;
80219;SDS011;69535;37.974;23.708;2023-05-02T10:56:19;3.67;;;3.30;;
80219;SDS011;69535;37.974;23.708;2023-05-02T10:58:49;5.70;;;3.40;;
80219;SDS011;69535;37.974;23.708;2023-05-02T11:04:11;4.05;;;3.33;;
80219;SDS011;69535;37.974;23.708;2023-05-02T11:07:16;4.45;;;3.30;;
80219;SDS011;69535;37.974;23.708;2023-05-02T11:11:54;6.68;;;3.22;;
80219;SDS011;69535;37.974;23.708;2023-05-02T11:24:44;5.68;;;3.67;;
80219;SDS011;69535;37.974;23.708;2023-05-02T11:32:23;4.25;;;3.65;;
80219;SDS011;69535;37.974;23.708;2023-05-02T11:35:14;3.67;;;3.13;;
80219;SDS011;69535;37.974;23.708;2023-05-02T11:37:42;6.63;;;3.72;;
80219;SDS011;69535;37.974;23.708;2023-05-02T11:40:13;6.22;;;3.40;;
80219;SDS011;69535;37.974;23.708;2023-05-02T11:42:40;5.35;;;3.28;;
80219;SDS011;69535;37.974;23.708;2023-05-02T11:45:06;4.60;;;3.40;;
80219;SDS011;69535;37.974;23.708;2023-05-02T11:47:31;5.57;;;3.58;;
80219;SDS011;69535;37.974;23.708;2023-05-02T11:50:03;5.13;;;3.47;;
80219;SDS011;69535;37.974;23.708;2023-05-02T11:52:29;4.07;;;3.42;;
80219;SDS011;69535;37.974;23.708;2023-05-02T11:55:00;3.90;;;3.50;;
80219;SDS011;69535;37.974;23.708;2023-05-02T11:57:26;3.78;;;3.40;;
80219;SDS011;69535;37.974;23.708;2023-05-02T11:59:53;4.20;;;3.42;;
80219;SDS011;69535;37.974;23.708;2023-05-02T12:02:34;3.65;;;3.20;;
80219;SDS011;69535;37.974;23.708;2023-05-02T12:05:04;5.25;;;3.30;;
80219;SDS011;69535;37.974;23.708;2023-05-02T12:07:41;5.85;;;3.33;;
80219;SDS011;69535;37.974;23.708;2023-05-02T12:10:13;4.78;;;3.33;;
80219;SDS011;69535;37.974;23.708;2023-05-02T12:12:40;4.28;;;3.40;;
80219;SDS011;69535;37.974;23.708;2023-05-02T12:15:08;7.10;;;3.33;;
80219;SDS011;69535;37.974;23.708;2023-05-02T12:17:42;4.78;;;3.20;;
80219;SDS011;69535;37.974;23.708;2023-05-02T12:20:17;3.90;;;3.40;;
80219;SDS011;69535;37.974;23.708;2023-05-02T12:22:42;5.10;;;3.65;;
80219;SDS011;69535;37.974;23.708;2023-05-02T12:25:09;4.55;;;3.47;;
80219;SDS011;69535;37.974;23.708;2023-05-02T12:27:34;5.32;;;3.50;;
80219;SDS011;69535;37.974;23.708;2023-05-02T12:30:01;3.60;;;3.30;;
80219;SDS011;69535;37.974;23.708;2023-05-02T12:32:28;6.88;;;4.05;;
80219;SDS011;69535;37.974;23.708;2023-05-02T12:34:56;6.82;;;3.72;;
80219;SDS011;69535;37.974;23.708;2023-05-02T12:37:22;6.88;;;3.70;;
80219;SDS011;69535;37.974;23.708;2023-05-02T12:39:49;7.68;;;3.80;;
80219;SDS011;69535;37.974;23.708;2023-05-02T12:42:15;5.43;;;3.10;;
80219;SDS011;69535;37.974;23.708;2023-05-02T12:44:45;5.40;;;4.00;;
80219;SDS011;69535;37.974;23.708;2023-05-02T12:47:13;4.78;;;3.65;;
80219;SDS011;69535;37.974;23.708;2023-05-02T12:49:50;3.88;;;3.45;;
80219;SDS011;69535;37.974;23.708;2023-05-02T12:52:17;3.90;;;3.30;;
80219;SDS011;69535;37.974;23.708;2023-05-02T12:55:19;5.72;;;3.67;;
80219;SDS011;69535;37.974;23.708;2023-05-02T12:57:48;4.43;;;3.60;;
80219;SDS011;69535;37.974;23.708;2023-05-02T13:00:17;5.85;;;3.70;;
80219;SDS011;69535;37.974;23.708;2023-05-02T13:02:43;5.70;;;3.55;;
80219;SDS011;69535;37.974;23.708;2023-05-02T13:05:18;5.60;;;3.70;;
80219;SDS011;69535;37.974;23.708;2023-05-02T13:07:45;5.50;;;3.22;;
80219;SDS011;69535;37.974;23.708;2023-05-02T13:10:11;5.40;;;3.63;;
80219;SDS011;69535;37.974;23.708;2023-05-02T13:12:37;4.75;;;3.80;;
80219;SDS011;69535;37.974;23.708;2023-05-02T13:15:04;5.45;;;3.50;;
80219;SDS011;69535;37.974;23.708;2023-05-02T13:17:31;4.88;;;3.38;;
80219;SDS011;69535;37.974;23.708;2023-05-02T13:19:57;5.40;;;3.50;;
80219;SDS011;69535;37.974;23.708;2023-05-02T13:22:23;5.20;;;3.10;;
80219;SDS011;69535;37.974;23.708;2023-05-02T13:24:49;5.40;;;3.33;;
80219;SDS011;69535;37.974;23.708;2023-05-02T13:27:16;4.07;;;3.28;;
80219;SDS011;69535;37.974;23.708;2023-05-02T13:29:45;3.35;;;3.05;;
80219;SDS011;69535;37.974;23.708;2023-05-02T13:32:11;4.10;;;3.38;;
80219;SDS011;69535;37.974;23.708;2023-05-02T13:34:37;4.30;;;3.20;;
80219;SDS011;69535;37.974;23.708;2023-05-02T13:37:02;4.88;;;3.50;;
80219;SDS011;69535;37.974;23.708;2023-05-02T13:39:28;3.92;;;3.42;;
80219;SDS011;69535;37.974;23.708;2023-05-02T13:41:54;3.72;;;3.08;;
80219;SDS011;69535;37.974;23.708;2023-05-02T13:44:19;6.47;;;3.58;;
80219;SDS011;69535;37.974;23.708;2023-05-02T13:46:45;6.03;;;3.20;;
80219;SDS011;69535;37.974;23.708;2023-05-02T13:49:11;6.35;;;3.63;;
80219;SDS011;69535;37.974;23.708;2023-05-02T13:51:37;4.47;;;3.40;;
80219;SDS011;69535;37.974;23.708;2023-05-02T13:54:04;4.15;;;3.20;;
80219;SDS011;69535;37.974;23.708;2023-05-02T13:56:29;4.80;;;3.50;;
80219;SDS011;69535;37.974;23.708;2023-05-02T13:58:55;4.57;;;3.58;;
80219;SDS011;69535;37.974;23.708;2023-05-02T14:01:21;5.13;;;3.38;;
80219;SDS011;69535;37.974;23.708;2023-05-02T14:03:47;6.93;;;3.80;;
80219;SDS011;69535;37.974;23.708;2023-05-02T14:06:13;6.15;;;3.92;;
80219;SDS011;69535;37.974;23.708;2023-05-02T14:08:38;8.18;;;4.75;;
80219;SDS011;69535;37.974;23.708;2023-05-02T14:11:04;8.48;;;4.78;;
80219;SDS011;69535;37.974;23.708;2023-05-02T14:13:30;10.25;;;5.40;;
80219;SDS011;69535;37.974;23.708;2023-05-02T14:15:55;8.45;;;5.13;;
80219;SDS011;69535;37.974;23.708;2023-05-02T14:18:22;10.20;;;5.50;;
80219;SDS011;69535;37.974;23.708;2023-05-02T14:20:48;9.35;;;5.68;;
80219;SDS011;69535;37.974;23.708;2023-05-02T14:23:14;11.63;;;5.72;;
80219;SDS011;69535;37.974;23.708;2023-05-02T14:25:40;9.13;;;5.57;;
80219;SDS011;69535;37.974;23.708;2023-05-02T14:28:06;9.93;;;5.50;;
80219;SDS011;69535;37.974;23.708;2023-05-02T14:30:31;10.90;;;6.47;;
80219;SDS011;69535;37.974;23.708;2023-05-02T14:32:57;11.07;;;6.25;;
80219;SDS011;69535;37.974;23.708;2023-05-02T14:35:23;8.10;;;5.40;;
80219;SDS011;69535;37.974;23.708;2023-05-02T14:37:49;12.13;;;5.60;;
80219;SDS011;69535;37.974;23.708;2023-05-02T14:40:15;9.73;;;5.43;;
80219;SDS011;69535;37.974;23.708;2023-05-02T14:42:40;8.85;;;5.40;;
80219;SDS011;69535;37.974;23.708;2023-05-02T14:45:07;10.70;;;5.95;;
80219;SDS011;69535;37.974;23.708;2023-05-02T14:47:33;11.05;;;6.18;;
80219;SDS011;69535;37.974;23.708;2023-05-02T14:50:01;10.98;;;5.80;;
80219;SDS011;69535;37.974;23.708;2023-05-02T14:52:28;8.80;;;5.65;;
80219;SDS011;69535;37.974;23.708;2023-05-02T14:54:53;9.32;;;5.40;;
80219;SDS011;69535;37.974;23.708;2023-05-02T14:57:19;8.98;;;5.47;;
80219;SDS011;69535;37.974;23.708;2023-05-02T14:59:45;10.43;;;5.38;;
80219;SDS011;69535;37.974;23.708;2023-05-02T15:02:11;10.88;;;6.07;;
80219;SDS011;69535;37.974;23.708;2023-05-02T15:04:36;8.85;;;5.45;;
80219;SDS011;69535;37.974;23.708;2023-05-02T15:07:02;10.00;;;6.22;;
80219;SDS011;69535;37.974;23.708;2023-05-02T15:09:28;10.80;;;6.03;;
80219;SDS011;69535;37.974;23.708;2023-05-02T15:11:54;10.52;;;6.50;;
80219;SDS011;69535;37.974;23.708;2023-05-02T15:14:20;6.63;;;5.85;;
80219;SDS011;69535;37.974;23.708;2023-05-02T15:16:46;9.95;;;6.90;;
80219;SDS011;69535;37.974;23.708;2023-05-02T15:19:12;12.38;;;6.07;;
80219;SDS011;69535;37.974;23.708;2023-05-02T15:21:38;7.60;;;5.97;;
80219;SDS011;69535;37.974;23.708;2023-05-02T15:24:04;10.05;;;6.07;;
80219;SDS011;69535;37.974;23.708;2023-05-02T15:26:30;12.00;;;6.57;;
80219;SDS011;69535;37.974;23.708;2023-05-02T15:28:56;12.07;;;6.68;;
80219;SDS011;69535;37.974;23.708;2023-05-02T15:31:23;11.38;;;7.18;;
80219;SDS011;69535;37.974;23.708;2023-05-02T15:33:49;10.85;;;7.25;;
80219;SDS011;69535;37.974;23.708;2023-05-02T15:36:15;12.48;;;7.07;;
80219;SDS011;69535;37.974;23.708;2023-05-02T15:38:41;12.68;;;6.78;;